Time;durP1;ratioP1;P1;durP2;ratioP2;P2;SDS_P1;SDS_P2;PMS_P1;PMS_P2;Temp;Humidity;BMP_temperature;BMP_pressure;BME280_temperature;BME280_humidity;BME280_pressure;Samples;Min_cycle;Max_cycle;Signal;HPM_P1;HPM_P2
2022/06/09 00:02:22;;;;;;;16.65;7.43;;;16.00;99.90;;;;;;5016150;28;19905;-91
2022/06/09 00:05:21;;;;;;;14.20;7.38;;;16.00;99.90;;;;;;5014900;28;20056;-90
2022/06/09 00:08:19;;;;;;;14.45;6.82;;;16.00;99.90;;;;;;5008320;28;20057;-91
2022/06/09 00:11:16;;;;;;;16.65;6.93;;;15.90;99.90;;;;;;5028529;28;20017;-89
2022/06/09 00:14:07;;;;;;;15.18;6.80;;;15.90;99.90;;;;;;5015203;28;20459;-90
2022/06/09 00:16:39;;;;;;;;;;;15.90;99.90;;;;;;5006496;28;20020;-90
2022/06/09 00:19:44;;;;;;;14.18;6.60;;;15.90;99.90;;;;;;5029511;28;19913;-90
2022/06/09 00:22:13;;;;;;;16.58;5.93;;;15.80;99.90;;;;;;5044652;28;20021;-90
2022/06/09 00:24:38;;;;;;;13.93;5.90;;;15.80;99.90;;;;;;5025631;28;20022;-91
2022/06/09 00:27:32;;;;;;;12.88;6.18;;;15.80;99.90;;;;;;4977577;28;20111;-91
2022/06/09 00:30:27;;;;;;;12.57;5.90;;;15.80;99.90;;;;;;4973439;28;20111;-91
2022/06/09 00:33:17;;;;;;;17.20;5.88;;;15.70;99.90;;;;;;4973517;28;20046;-89
2022/06/09 00:35:52;;;;;;;15.85;4.90;;;15.80;99.90;;;;;;4975185;28;20045;-91
2022/06/09 00:38:18;;;;;;;16.45;5.28;;;15.70;99.90;;;;;;4972175;28;20035;-90
2022/06/09 00:40:43;;;;;;;15.43;4.72;;;15.70;99.90;;;;;;4969431;28;20038;-89
2022/06/09 00:43:18;;;;;;;12.05;5.10;;;15.70;99.90;;;;;;4980077;28;20042;-91
2022/06/09 00:46:24;;;;;;;14.35;4.82;;;15.70;99.90;;;;;;4950962;28;20107;-92
2022/06/09 00:49:14;;;;;;;13.55;4.85;;;15.70;99.90;;;;;;4965450;28;20019;-90
2022/06/09 00:52:40;;;;;;;17.37;5.30;;;15.70;99.90;;;;;;4960916;28;20038;-91
2022/06/09 00:58:59;;;;;;;14.45;4.60;;;15.70;99.90;;;;;;4946861;28;20571;-91
2022/06/09 01:01:25;;;;;;;14.02;4.40;;;15.70;99.90;;;;;;4968858;28;20027;-90
2022/06/09 01:18:02;;;;;;;14.38;4.68;;;15.60;99.90;;;;;;5019460;28;20135;-91
2022/06/09 01:31:15;;;;;;;18.02;4.97;;;15.70;99.90;;;;;;5034832;28;20059;-92
2022/06/09 01:37:27;;;;;;;14.23;4.30;;;15.60;99.90;;;;;;5027720;28;20076;-91
2022/06/09 01:43:11;;;;;;;15.27;5.03;;;15.60;99.90;;;;;;5026048;28;20572;-91
2022/06/09 01:46:21;;;;;;;18.55;4.63;;;15.60;99.90;;;;;;5000414;28;20101;-91
2022/06/09 01:48:51;;;;;;;17.05;5.18;;;15.60;99.90;;;;;;5018413;28;20508;-92
2022/06/09 01:52:00;;;;;;;17.67;5.57;;;15.60;99.90;;;;;;5025718;28;20022;-92
2022/06/09 01:54:33;;;;;;;18.30;5.70;;;15.60;99.90;;;;;;4987861;28;20065;-92
2022/06/09 01:57:37;;;;;;;14.73;4.82;;;15.60;99.90;;;;;;5019732;28;20028;-91
2022/06/09 02:00:33;;;;;;;16.02;4.97;;;15.60;99.90;;;;;;5019889;28;20044;-90
2022/06/09 02:03:28;;;;;;;17.15;5.35;;;15.60;99.90;;;;;;5000863;28;20098;-91
2022/06/09 02:05:58;;;;;;;19.63;5.47;;;15.50;99.90;;;;;;5014169;28;20131;-91
2022/06/09 02:08:25;;;;;;;16.63;5.35;;;15.50;99.90;;;;;;5014715;28;20027;-91
2022/06/09 02:11:16;;;;;;;15.35;4.78;;;15.50;99.90;;;;;;5020264;28;20030;-92
2022/06/09 02:13:50;;;;;;;16.98;5.07;;;15.50;99.90;;;;;;5021860;28;20017;-90
2022/06/09 02:16:19;;;;;;;18.05;5.53;;;15.50;99.90;;;;;;5018740;28;20017;-90
2022/06/09 02:19:03;;;;;;;16.88;5.65;;;15.50;99.90;;;;;;5014213;28;20018;-90
2022/06/09 02:21:33;;;;;;;17.23;5.30;;;15.50;99.90;;;;;;5013939;28;20028;-91
2022/06/09 02:24:48;;;;;;;18.83;5.85;;;15.50;99.90;;;;;;5017970;28;20036;-92
2022/06/09 02:27:14;;;;;;;16.10;5.00;;;15.50;99.90;;;;;;4991700;28;20419;-91
2022/06/09 02:30:08;;;;;;;20.85;5.95;;;15.50;99.90;;;;;;5022520;28;20040;-90
2022/06/09 02:32:50;;;;;;;14.32;5.88;;;15.50;99.90;;;;;;5016978;28;20021;-90
2022/06/09 02:35:16;;;;;;;18.27;5.50;;;15.50;99.90;;;;;;5003538;28;20057;-91
2022/06/09 02:38:21;;;;;;;15.50;5.30;;;15.50;99.90;;;;;;5023413;28;20462;-91
2022/06/09 02:41:28;;;;;;;15.15;4.68;;;15.50;99.90;;;;;;5005454;28;20040;-92
2022/06/09 02:44:23;;;;;;;12.10;5.60;;;15.40;99.90;;;;;;5019379;28;20021;-92
2022/06/09 02:47:17;;;;;;;11.88;4.95;;;15.50;99.90;;;;;;5009545;28;20030;-92
2022/06/09 02:49:58;;;;;;;15.27;5.32;;;15.50;99.90;;;;;;5010784;28;20026;-91
2022/06/09 02:55:46;;;;;;;13.88;4.90;;;15.40;99.90;;;;;;5026212;28;20053;-93
2022/06/09 03:02:03;;;;;;;19.08;4.97;;;15.40;99.90;;;;;;5036813;28;20072;-91
2022/06/09 03:08:00;;;;;;;20.08;5.38;;;15.30;99.90;;;;;;5018665;28;20026;-91
2022/06/09 03:13:48;;;;;;;13.88;5.35;;;15.20;99.90;;;;;;5018328;28;20029;-92
2022/06/09 03:19:37;;;;;;;14.77;5.00;;;15.10;99.90;;;;;;5031272;28;20060;-93
2022/06/09 03:22:18;;;;;;;19.92;5.80;;;15.10;99.90;;;;;;5023317;28;20013;-93
2022/06/09 03:25:00;;;;;;;18.15;5.05;;;15.10;99.90;;;;;;5018710;28;20470;-91
2022/06/09 03:34:42;;;;;;;15.75;5.28;;;15.00;99.90;;;;;;5033806;28;20032;-92
2022/06/09 03:47:35;;;;;;;13.32;5.35;;;15.00;99.90;;;;;;4974388;28;20050;-92
2022/06/09 03:53:24;;;;;;;14.20;4.68;;;15.00;99.90;;;;;;4978544;28;20407;-94
2022/06/09 03:59:29;;;;;;;20.52;5.40;;;15.00;99.90;;;;;;5011955;28;20073;-92
2022/06/09 04:02:06;;;;;;;14.40;5.28;;;15.00;99.90;;;;;;5005355;28;20057;-90
2022/06/09 04:08:30;;;;;;;16.25;5.50;;;15.00;99.90;;;;;;4994401;28;20046;-91
2022/06/09 04:11:34;;;;;;;21.08;7.78;;;14.90;99.90;;;;;;4964333;28;20050;-90
2022/06/09 04:17:30;;;;;;;12.35;5.03;;;15.00;99.90;;;;;;4977752;28;20043;-92
2022/06/09 04:20:03;;;;;;;19.67;5.80;;;15.00;99.90;;;;;;4977846;28;20034;-92
2022/06/09 04:23:09;;;;;;;18.63;5.80;;;15.00;99.90;;;;;;5027264;28;20613;-92
2022/06/09 04:26:00;;;;;;;18.63;6.05;;;15.00;99.90;;;;;;5015851;28;20053;-92
2022/06/09 04:28:26;;;;;;;14.90;5.93;;;15.00;99.90;;;;;;5013887;28;20026;-90
2022/06/09 04:31:30;;;;;;;25.00;6.65;;;15.00;99.90;;;;;;4990298;28;20050;-91
2022/06/09 04:34:11;;;;;;;24.23;6.05;;;15.10;99.90;;;;;;4974174;28;20472;-91
2022/06/09 04:39:48;;;;;;;27.30;8.05;;;15.10;99.90;;;;;;5002707;28;19912;-92
2022/06/09 04:42:29;;;;;;;21.83;7.60;;;15.10;99.90;;;;;;4952488;28;20026;-91
2022/06/09 04:49:01;;;;;;;20.27;7.72;;;15.20;99.90;;;;;;4974281;28;20046;-92
2022/06/09 04:54:56;;;;;;;22.75;7.10;;;15.20;99.90;;;;;;4966570;28;20033;-91
2022/06/09 04:57:29;;;;;;;21.48;7.45;;;15.30;99.90;;;;;;4958435;28;20027;-91
2022/06/09 04:59:55;;;;;;;18.27;7.20;;;15.30;99.90;;;;;;4977194;28;20030;-91
2022/06/09 05:05:57;;;;;;;27.98;8.32;;;15.40;99.90;;;;;;4984206;28;20025;-89
2022/06/09 05:11:46;;;;;;;25.88;7.68;;;15.40;99.90;;;;;;4996562;28;20060;-91
2022/06/09 05:14:13;;;;;;;21.20;7.80;;;15.40;99.90;;;;;;4955090;28;20070;-91
2022/06/09 05:17:08;;;;;;;26.48;8.90;;;15.40;99.90;;;;;;4929674;28;20082;-92
2022/06/09 05:19:34;;;;;;;25.77;9.43;;;15.50;99.90;;;;;;4973703;28;20018;-91
2022/06/09 05:21:59;;;;;;;22.08;8.68;;;15.50;99.90;;;;;;4989557;28;20019;-90
2022/06/09 05:24:32;;;;;;;21.35;8.52;;;15.50;99.90;;;;;;4994201;28;20026;-90
2022/06/09 05:27:14;;;;;;;21.33;8.88;;;15.50;99.90;;;;;;4961464;28;20042;-90
2022/06/09 05:29:46;;;;;;;25.63;9.32;;;15.60;99.90;;;;;;4975712;28;20488;-91
2022/06/09 05:32:19;;;;;;;25.08;9.27;;;15.60;99.90;;;;;;4965985;28;20045;-89
2022/06/09 05:34:44;;;;;;;18.83;7.82;;;15.60;99.90;;;;;;5009701;23;20041;-92
2022/06/09 05:37:10;;;;;;;24.52;9.18;;;15.60;99.90;;;;;;5027644;28;20026;-89
2022/06/09 05:45:05;;;;;;;18.00;7.25;;;15.60;99.90;;;;;;5042650;28;20045;-90
2022/06/09 05:47:31;;;;;;;22.23;7.03;;;15.70;99.90;;;;;;5035909;28;20028;-92
2022/06/09 05:49:57;;;;;;;18.42;6.22;;;15.70;99.90;;;;;;5038494;28;20017;-92
2022/06/09 05:52:26;;;;;;;16.05;5.88;;;15.70;99.90;;;;;;5037957;28;20021;-92
2022/06/09 05:54:52;;;;;;;12.65;5.30;;;15.80;99.90;;;;;;5050738;28;20043;-92
2022/06/09 05:57:20;;;;;;;13.68;4.90;;;15.80;99.90;;;;;;5023318;28;20021;-92
2022/06/09 05:59:53;;;;;;;12.93;4.22;;;15.80;99.90;;;;;;5038869;28;20036;-91
2022/06/09 06:02:27;;;;;;;9.02;3.88;;;15.80;99.90;;;;;;5018819;28;20488;-90
2022/06/09 06:04:59;;;;;;;11.10;3.80;;;15.90;99.90;;;;;;5049877;28;20182;-91
2022/06/09 06:07:24;;;;;;;8.35;3.92;;;15.90;99.90;;;;;;5021943;28;20204;-90
2022/06/09 06:09:50;;;;;;;10.05;3.80;;;15.90;99.90;;;;;;5038752;28;20092;-90
2022/06/09 06:12:16;;;;;;;11.50;3.70;;;16.00;99.90;;;;;;5036821;28;20075;-92
2022/06/09 06:14:46;;;;;;;10.73;3.40;;;16.00;99.90;;;;;;5022697;28;20017;-92
2022/06/09 06:17:11;;;;;;;12.57;3.75;;;16.00;99.90;;;;;;5033937;28;20025;-92
2022/06/09 06:19:38;;;;;;;10.90;3.67;;;16.10;99.90;;;;;;5020934;28;20029;-90
2022/06/09 06:22:04;;;;;;;5.78;3.15;;;16.10;99.90;;;;;;5002027;28;20151;-91
2022/06/09 06:24:35;;;;;;;6.90;3.33;;;16.10;99.90;;;;;;5036793;28;20048;-91
2022/06/09 06:27:01;;;;;;;12.32;3.45;;;16.20;99.90;;;;;;5041940;28;20051;-92
2022/06/09 06:29:30;;;;;;;8.82;3.13;;;16.20;99.90;;;;;;5020788;28;20041;-92
2022/06/09 06:32:00;;;;;;;6.78;3.22;;;16.30;99.90;;;;;;5039450;28;20029;-91
2022/06/09 06:34:25;;;;;;;8.38;3.00;;;16.30;99.90;;;;;;5038352;28;20025;-92
2022/06/09 06:36:54;;;;;;;7.95;2.97;;;16.30;99.90;;;;;;5020913;28;20064;-92
2022/06/09 06:39:20;;;;;;;7.68;2.90;;;16.40;99.90;;;;;;5017377;28;20060;-90
2022/06/09 06:41:46;;;;;;;6.20;3.05;;;16.40;99.90;;;;;;5027340;28;20371;-91
2022/06/09 06:44:19;;;;;;;8.52;3.20;;;16.40;99.90;;;;;;5017322;28;20112;-90
2022/06/09 06:46:44;;;;;;;8.02;2.78;;;16.50;99.90;;;;;;5015885;28;20060;-84
2022/06/09 06:49:10;;;;;;;9.07;3.67;;;16.60;99.90;;;;;;5035137;28;20048;-84
2022/06/09 06:51:36;;;;;;;5.28;2.85;;;16.60;99.90;;;;;;5023234;28;20033;-84
2022/06/09 06:54:05;;;;;;;6.75;2.60;;;16.70;99.90;;;;;;5033683;28;20025;-85
2022/06/09 06:56:32;;;;;;;8.05;3.03;;;16.70;99.90;;;;;;5033027;28;20027;-85
2022/06/09 06:58:58;;;;;;;6.63;2.65;;;16.80;99.90;;;;;;5032770;28;20032;-85
2022/06/09 07:01:23;;;;;;;7.85;2.72;;;16.90;99.90;;;;;;5009251;28;20025;-85
2022/06/09 07:03:49;;;;;;;7.05;2.72;;;16.90;99.90;;;;;;5052759;28;20027;-85
2022/06/09 07:06:15;;;;;;;9.02;2.95;;;16.90;99.90;;;;;;5014469;28;20450;-86
2022/06/09 07:08:41;;;;;;;5.85;2.53;;;17.00;99.90;;;;;;5028821;28;20029;-86
2022/06/09 07:11:07;;;;;;;8.27;2.40;;;17.10;99.90;;;;;;5036801;28;20051;-85
2022/06/09 07:13:36;;;;;;;5.68;2.03;;;17.20;99.90;;;;;;5035456;28;20028;-86
2022/06/09 07:16:02;;;;;;;3.17;1.77;;;17.30;99.90;;;;;;5037376;28;20458;-85
2022/06/09 07:18:29;;;;;;;7.00;2.10;;;17.30;99.90;;;;;;5018646;28;20025;-85
2022/06/09 07:20:55;;;;;;;4.28;2.10;;;17.30;99.90;;;;;;5030679;28;20056;-85
2022/06/09 07:23:22;;;;;;;4.55;1.80;;;17.40;99.90;;;;;;5042067;28;20086;-85
2022/06/09 07:25:48;;;;;;;4.72;2.03;;;17.50;99.90;;;;;;5024605;28;20029;-85
2022/06/09 07:28:14;;;;;;;3.05;1.73;;;17.50;99.90;;;;;;5031283;28;20377;-84
2022/06/09 07:30:40;;;;;;;4.55;1.90;;;17.60;99.90;;;;;;5024712;28;20043;-85
2022/06/09 07:33:06;;;;;;;5.65;2.15;;;17.60;99.90;;;;;;5045502;28;20025;-85
2022/06/09 07:35:34;;;;;;;6.07;2.20;;;17.70;99.90;;;;;;5020765;28;20056;-85
2022/06/09 07:38:00;;;;;;;3.50;1.95;;;17.80;99.90;;;;;;5036250;28;20062;-85
2022/06/09 07:40:26;;;;;;;4.93;2.05;;;17.90;99.90;;;;;;5036903;28;20051;-84
2022/06/09 07:42:52;;;;;;;4.47;1.85;;;18.00;99.90;;;;;;5020499;28;20124;-84
2022/06/09 07:45:18;;;;;;;6.47;1.92;;;18.00;99.90;;;;;;5037093;28;20029;-85
2022/06/09 07:47:44;;;;;;;10.57;2.08;;;18.10;99.90;;;;;;5017642;28;20030;-85
2022/06/09 07:50:10;;;;;;;5.10;2.30;;;18.10;99.90;;;;;;5035997;28;20028;-85
2022/06/09 07:52:35;;;;;;;7.07;1.95;;;18.20;99.90;;;;;;5037526;28;20116;-85
2022/06/09 07:55:01;;;;;;;3.45;2.00;;;18.20;99.90;;;;;;5037389;28;20079;-85
2022/06/09 07:57:27;;;;;;;4.72;1.95;;;18.30;99.90;;;;;;5044286;28;20025;-85
2022/06/09 07:59:52;;;;;;;6.53;1.90;;;18.30;99.90;;;;;;5020557;28;20525;-85
2022/06/09 08:02:18;;;;;;;8.50;1.98;;;18.40;99.90;;;;;;5032031;28;20087;-85
2022/06/09 08:04:43;;;;;;;5.47;2.05;;;18.40;99.90;;;;;;5031248;28;20363;-86
2022/06/09 08:07:09;;;;;;;5.43;2.10;;;18.40;99.90;;;;;;5036383;28;20021;-85
2022/06/09 08:09:35;;;;;;;7.63;2.17;;;18.50;99.90;;;;;;5037047;28;20036;-86
2022/06/09 08:15:24;;;;;;;3.83;2.00;;;18.60;99.90;;;;;;5047775;28;20028;-86
2022/06/09 08:18:16;;;;;;;6.13;2.20;;;18.60;99.90;;;;;;5033187;28;20014;-86
2022/06/09 08:20:51;;;;;;;5.28;1.67;;;18.70;99.90;;;;;;5035433;28;20116;-86
2022/06/09 08:23:21;;;;;;;5.78;1.90;;;18.80;99.90;;;;;;5035603;28;20029;-86
2022/06/09 08:25:48;;;;;;;7.13;2.23;;;18.80;99.90;;;;;;5032707;28;20104;-86
2022/06/09 08:28:20;;;;;;;5.63;2.00;;;18.90;99.90;;;;;;5019711;28;20628;-86
2022/06/09 08:30:47;;;;;;;3.67;1.90;;;19.00;99.90;;;;;;5025796;28;20040;-86
2022/06/09 08:33:13;;;;;;;3.90;1.80;;;19.00;99.90;;;;;;5016976;28;20040;-86
2022/06/09 08:35:39;;;;;;;4.35;2.03;;;19.10;99.90;;;;;;5013038;28;20541;-86
2022/06/09 08:38:06;;;;;;;5.63;2.17;;;19.20;99.90;;;;;;5027965;28;20037;-86
2022/06/09 08:40:56;;;;;;;5.40;2.40;;;19.20;99.90;;;;;;5032510;28;20025;-85
2022/06/09 08:43:22;;;;;;;3.80;2.07;;;19.30;99.90;;;;;;5031027;28;20037;-86
2022/06/09 08:45:48;;;;;;;6.25;2.60;;;19.40;99.90;;;;;;5020897;28;20034;-85
2022/06/09 08:48:25;;;;;;;5.65;1.92;;;19.50;99.90;;;;;;5019570;28;20101;-85
2022/06/09 08:51:06;;;;;;;5.55;2.10;;;19.60;99.90;;;;;;5032264;28;20112;-85
2022/06/09 08:53:38;;;;;;;5.35;1.70;;;19.60;99.90;;;;;;5032353;28;20017;-86
2022/06/09 08:56:15;;;;;;;5.38;1.98;;;19.70;99.90;;;;;;5032537;28;20052;-87
2022/06/09 08:58:48;;;;;;;4.28;1.73;;;19.80;99.90;;;;;;5033904;28;20025;-87
2022/06/09 09:01:39;;;;;;;3.45;1.23;;;19.80;99.90;;;;;;5025570;28;20079;-85
2022/06/09 09:04:22;;;;;;;2.70;0.98;;;19.90;99.90;;;;;;5022358;28;20478;-85
2022/06/09 09:06:56;;;;;;;2.83;1.10;;;19.90;99.90;;;;;;5023037;28;20018;-85
2022/06/09 09:09:29;;;;;;;2.17;1.10;;;19.90;99.90;;;;;;5052762;28;20022;-85
2022/06/09 09:12:07;;;;;;;2.63;1.00;;;20.00;99.90;;;;;;5036608;28;20017;-86
2022/06/09 09:14:40;;;;;;;2.78;1.10;;;20.00;99.90;;;;;;5023589;28;20470;-86
2022/06/09 09:17:14;;;;;;;3.92;1.40;;;20.00;99.90;;;;;;5030947;28;20032;-84
2022/06/09 09:19:52;;;;;;;4.20;1.25;;;20.10;99.90;;;;;;5035081;28;20033;-84
2022/06/09 09:22:44;;;;;;;4.65;1.33;;;20.10;99.90;;;;;;5028219;28;20018;-83
2022/06/09 09:25:13;;;;;;;6.05;1.58;;;20.20;99.90;;;;;;5020470;28;20124;-84
2022/06/09 09:27:57;;;;;;;6.18;1.83;;;20.20;99.90;;;;;;5035147;28;20030;-84
2022/06/09 09:30:31;;;;;;;7.05;1.75;;;20.20;99.90;;;;;;5026045;28;20021;-84
2022/06/09 09:32:57;;;;;;;5.90;2.10;;;20.20;99.90;;;;;;5018488;28;20033;-85
2022/06/09 09:35:41;;;;;;;6.60;2.10;;;20.30;99.90;;;;;;5024167;28;20042;-84
2022/06/09 09:38:09;;;;;;;7.35;2.28;;;20.30;99.90;;;;;;5013714;28;20116;-86
2022/06/09 09:40:44;;;;;;;5.85;2.15;;;20.30;99.90;;;;;;5026662;28;20033;-86
2022/06/09 09:43:13;;;;;;;4.53;1.92;;;20.30;99.90;;;;;;5035742;28;20075;-87
2022/06/09 09:45:44;;;;;;;5.75;2.13;;;20.40;99.90;;;;;;5036117;28;20025;-86
2022/06/09 09:48:30;;;;;;;9.63;2.50;;;20.50;99.90;;;;;;5035304;28;20492;-86
2022/06/09 09:51:11;;;;;;;7.20;1.90;;;20.50;99.90;;;;;;5024137;28;20018;-85
2022/06/09 09:53:50;;;;;;;6.38;1.88;;;20.60;99.90;;;;;;5027100;28;20017;-87
2022/06/09 09:56:16;;;;;;;4.75;2.15;;;20.60;99.90;;;;;;5035450;28;20022;-88
2022/06/09 09:58:47;;;;;;;6.22;2.50;;;20.70;99.90;;;;;;5024563;28;20387;-88
2022/06/09 10:01:22;;;;;;;5.82;2.53;;;20.80;99.90;;;;;;5020732;28;20116;-87
2022/06/09 10:09:40;;;;;;;7.78;2.40;;;20.90;99.90;;;;;;5036284;28;20113;-86
2022/06/09 10:12:27;;;;;;;8.75;2.55;;;20.80;99.90;;;;;;5031310;28;20029;-87
2022/06/09 10:14:54;;;;;;;7.03;1.80;;;20.80;99.90;;;;;;5021972;28;20010;-84
2022/06/09 10:17:50;;;;;;;3.80;1.98;;;20.70;99.90;;;;;;5035430;28;20379;-83
2022/06/09 10:20:34;;;;;;;5.65;1.90;;;20.80;99.90;;;;;;5027098;28;20072;-84
2022/06/09 10:23:03;;;;;;;5.85;2.30;;;20.80;99.90;;;;;;5035157;28;20030;-84
2022/06/09 10:25:34;;;;;;;6.05;2.15;;;20.70;99.90;;;;;;5031405;28;20040;-84
2022/06/09 10:28:10;;;;;;;9.15;2.78;;;20.70;99.90;;;;;;5034158;28;20037;-83
2022/06/09 10:30:43;;;;;;;5.20;2.50;;;20.70;99.90;;;;;;5034043;28;20025;-84
2022/06/09 10:33:41;;;;;;;7.60;2.78;;;20.70;99.90;;;;;;5034524;28;20044;-83
2022/06/09 10:36:15;;;;;;;7.68;2.40;;;20.70;99.90;;;;;;5033996;28;20062;-84
2022/06/09 10:39:04;;;;;;;7.03;2.40;;;20.80;99.90;;;;;;5026227;28;20030;-84
2022/06/09 10:41:40;;;;;;;5.60;2.00;;;20.80;99.90;;;;;;5031402;28;20412;-84
2022/06/09 10:44:22;;;;;;;5.50;2.72;;;20.80;99.90;;;;;;5034469;28;20494;-86
2022/06/09 10:55:28;;;;;;;8.60;2.25;;;20.80;99.90;;;;;;5030125;28;20037;-83
2022/06/09 10:58:01;;;;;;;6.22;2.30;;;20.80;99.90;;;;;;5026127;28;20025;-83
2022/06/09 11:00:31;;;;;;;5.90;2.00;;;20.80;99.90;;;;;;5029492;28;20040;-83
2022/06/09 11:03:00;;;;;;;5.45;1.73;;;20.80;99.90;;;;;;5025663;28;20021;-83
2022/06/09 11:05:38;;;;;;;6.78;1.67;;;20.90;99.90;;;;;;5033366;28;20545;-83
2022/06/09 11:08:16;;;;;;;7.25;1.80;;;20.90;99.90;;;;;;5022877;28;20054;-83
2022/06/09 11:10:57;;;;;;;6.88;1.80;;;21.00;99.90;;;;;;5033092;28;20475;-83
2022/06/09 11:13:26;;;;;;;6.50;1.80;;;21.00;99.90;;;;;;5033458;28;20056;-83
2022/06/09 11:16:01;;;;;;;6.47;1.58;;;21.10;99.90;;;;;;5033884;28;20028;-83
2022/06/09 11:19:01;;;;;;;5.35;1.58;;;21.20;99.90;;;;;;5040519;28;20030;-85
2022/06/09 11:21:54;;;;;;;4.57;1.20;;;21.30;99.90;;;;;;5057850;28;20056;-86
2022/06/09 11:24:33;;;;;;;4.88;1.40;;;21.30;99.90;;;;;;5041236;28;20550;-86
2022/06/09 11:26:58;;;;;;;6.00;1.83;;;21.30;99.90;;;;;;5030666;28;20022;-85
2022/06/09 11:29:33;;;;;;;8.43;2.00;;;21.30;99.90;;;;;;5034005;28;20037;-85
2022/06/09 11:32:02;;;;;;;4.13;1.30;;;21.30;99.90;;;;;;5034495;28;20467;-85
2022/06/09 11:34:34;;;;;;;5.25;1.33;;;21.30;99.90;;;;;;5033028;28;20159;-85
2022/06/09 11:37:04;;;;;;;4.55;1.40;;;21.40;99.90;;;;;;5032970;28;20045;-85
2022/06/09 11:39:36;;;;;;;5.32;1.17;;;21.40;99.90;;;;;;5018900;28;20034;-85
2022/06/09 11:42:07;;;;;;;4.47;1.13;;;21.30;99.90;;;;;;5033251;28;20504;-85
2022/06/09 11:44:39;;;;;;;4.82;1.23;;;21.40;99.90;;;;;;5032812;28;20056;-85
2022/06/09 11:47:27;;;;;;;9.77;1.20;;;21.40;99.90;;;;;;5032779;28;20025;-85
2022/06/09 11:50:04;;;;;;;6.60;1.50;;;21.40;99.90;;;;;;5033987;28;20039;-86
2022/06/09 11:52:39;;;;;;;3.65;1.20;;;21.40;99.90;;;;;;5023215;28;20022;-86
2022/06/09 11:55:24;;;;;;;6.20;1.55;;;21.50;99.90;;;;;;5030318;28;20136;-85
2022/06/09 11:57:51;;;;;;;5.63;1.55;;;21.50;99.90;;;;;;5032687;28;20053;-85
2022/06/09 12:00:26;;;;;;;4.07;1.05;;;21.60;99.90;;;;;;5028639;28;20018;-85
2022/06/09 12:03:07;;;;;;;5.55;1.50;;;21.70;99.90;;;;;;5024264;28;20033;-85
2022/06/09 12:06:21;;;;;;;6.82;1.48;;;21.80;99.90;;;;;;5032467;28;20118;-85
2022/06/09 12:08:53;;;;;;;6.13;1.40;;;21.80;99.90;;;;;;5027157;28;20037;-89
2022/06/09 12:11:23;;;;;;;6.93;1.50;;;21.80;98.90;;;;;;5014390;28;20438;-88
2022/06/09 12:14:03;;;;;;;6.10;1.60;;;21.80;98.80;;;;;;5011585;28;20033;-88
2022/06/09 12:16:58;;;;;;;3.90;1.83;;;21.80;99.30;;;;;;5014270;28;20046;-88
2022/06/09 12:19:28;;;;;;;4.30;1.40;;;21.80;99.50;;;;;;5011215;28;20276;-88
2022/06/09 12:22:19;;;;;;;5.20;1.35;;;21.80;98.60;;;;;;5022816;28;20033;-89
2022/06/09 12:25:11;;;;;;;3.33;1.13;;;21.90;98.70;;;;;;5027426;28;20036;-88
2022/06/09 12:27:37;;;;;;;7.95;1.40;;;21.90;99.50;;;;;;5036222;28;20260;-89
2022/06/09 12:30:02;;;;;;;6.47;1.27;;;22.00;99.60;;;;;;5028628;28;20045;-88
2022/06/09 12:32:47;;;;;;;4.57;1.48;;;22.10;98.80;;;;;;5016782;28;20030;-89
2022/06/09 12:35:27;;;;;;;6.00;1.20;;;22.10;98.50;;;;;;5024948;28;20046;-88
2022/06/09 12:38:04;;;;;;;8.07;1.47;;;22.10;98.00;;;;;;5037222;28;20026;-89
2022/06/09 12:40:40;;;;;;;4.63;1.50;;;22.10;97.20;;;;;;5038617;28;20043;-89
2022/06/09 12:43:18;;;;;;;5.63;1.40;;;22.20;97.20;;;;;;5038349;28;20056;-89
2022/06/09 12:46:06;;;;;;;4.68;1.38;;;22.20;97.30;;;;;;5036737;28;20036;-88
2022/06/09 12:48:36;;;;;;;6.50;1.30;;;22.30;97.40;;;;;;5031717;28;20032;-88
2022/06/09 12:51:04;;;;;;;7.70;2.10;;;22.40;96.30;;;;;;5010035;28;20076;-89
2022/06/09 12:53:35;;;;;;;5.40;1.55;;;22.40;96.40;;;;;;5035440;28;20108;-88
2022/06/09 12:56:21;;;;;;;;;;;22.50;96.90;;;;;;5037837;28;20036;-88
2022/06/09 12:58:50;;;;;;;6.55;1.45;;;22.60;97.40;;;;;;5033147;28;19905;-88
2022/06/09 13:01:19;;;;;;;4.15;1.20;;;22.60;97.40;;;;;;5029318;28;20075;-89
2022/06/09 13:03:55;;;;;;;5.07;1.45;;;22.60;96.70;;;;;;5037013;28;20025;-90
2022/06/09 13:06:40;;;;;;;3.53;1.27;;;22.60;96.40;;;;;;5037398;28;20079;-90
2022/06/09 13:09:24;;;;;;;6.75;1.65;;;22.60;96.50;;;;;;5040811;28;20143;-91
2022/06/09 13:14:45;;;;;;;6.35;1.48;;;22.70;95.90;;;;;;5038782;28;20036;-89
2022/06/09 13:17:21;;;;;;;6.15;1.20;;;22.80;94.80;;;;;;5022036;28;20037;-89
2022/06/09 13:19:56;;;;;;;4.75;1.45;;;22.90;94.50;;;;;;5026936;28;20030;-89
2022/06/09 13:22:23;;;;;;;5.65;1.33;;;22.90;94.40;;;;;;5031577;28;20401;-90
2022/06/09 13:24:49;;;;;;;7.57;1.67;;;22.90;94.50;;;;;;5025223;28;20022;-89
2022/06/09 13:27:19;;;;;;;5.05;1.35;;;22.90;94.20;;;;;;5020440;28;20056;-89
2022/06/09 13:30:05;;;;;;;5.60;1.55;;;23.00;94.30;;;;;;5040122;28;20029;-89
2022/06/09 13:32:42;;;;;;;8.43;1.63;;;22.90;94.10;;;;;;5046236;28;20425;-89
2022/06/09 13:35:40;;;;;;;5.90;1.52;;;22.90;93.60;;;;;;5037062;28;20037;-89
2022/06/09 13:38:17;;;;;;;5.43;1.38;;;22.90;93.70;;;;;;5035659;28;20026;-89
2022/06/09 13:41:02;;;;;;;4.80;1.40;;;23.00;93.20;;;;;;5040049;28;20022;-90
2022/06/09 13:43:35;;;;;;;5.32;2.03;;;23.00;93.10;;;;;;5030566;28;20030;-90
2022/06/09 13:46:09;;;;;;;4.90;1.33;;;23.00;93.20;;;;;;5017401;28;20026;-89
2022/06/09 13:48:47;;;;;;;6.78;1.60;;;23.10;93.40;;;;;;5036265;28;20033;-90
2022/06/09 13:51:27;;;;;;;5.35;1.50;;;23.10;93.40;;;;;;5035844;28;20024;-89
2022/06/09 13:54:22;;;;;;;3.97;1.33;;;23.10;93.40;;;;;;5032453;28;20080;-89
2022/06/09 13:56:50;;;;;;;6.43;1.70;;;23.10;93.80;;;;;;5017581;28;20050;-89
2022/06/09 13:59:16;;;;;;;6.82;1.70;;;23.20;94.00;;;;;;5017881;28;20097;-89
2022/06/09 14:05:04;;;;;;;4.40;1.30;;;23.30;94.10;;;;;;5029865;28;20087;-89
2022/06/09 14:07:30;;;;;;;5.70;1.35;;;23.30;93.60;;;;;;5019160;28;20033;-89
2022/06/09 14:09:55;;;;;;;5.75;1.80;;;23.30;92.40;;;;;;5035422;28;20029;-89
2022/06/09 14:12:21;;;;;;;5.65;1.50;;;23.20;91.00;;;;;;5014998;28;20033;-88
2022/06/09 14:14:47;;;;;;;6.20;1.50;;;23.20;89.20;;;;;;5032077;28;20025;-88
2022/06/09 14:17:20;;;;;;;6.18;1.88;;;23.20;90.10;;;;;;5024542;28;20101;-89
2022/06/09 14:19:47;;;;;;;8.07;1.95;;;23.20;90.40;;;;;;5034911;28;20060;-89
2022/06/09 14:22:13;;;;;;;5.15;1.50;;;23.20;89.70;;;;;;5026648;28;20030;-89
2022/06/09 14:24:39;;;;;;;6.45;1.75;;;23.20;88.00;;;;;;5013016;28;20438;-89
2022/06/09 14:27:04;;;;;;;6.03;1.35;;;23.20;87.20;;;;;;5015000;28;20022;-88
2022/06/09 14:32:54;;;;;;;6.47;2.00;;;23.30;86.00;;;;;;5036018;28;20093;-89
2022/06/09 14:35:21;;;;;;;7.53;1.83;;;23.30;86.60;;;;;;5016676;28;20042;-89
2022/06/09 14:37:49;;;;;;;5.15;1.58;;;23.40;88.10;;;;;;5014564;28;20021;-86
2022/06/09 14:40:41;;;;;;;5.85;1.67;;;23.40;88.10;;;;;;5014154;28;20092;-85
2022/06/09 14:43:08;;;;;;;9.00;2.22;;;23.50;86.70;;;;;;5014979;28;20037;-86
2022/06/09 14:45:34;;;;;;;6.78;1.52;;;23.50;85.90;;;;;;5011354;28;20043;-86
2022/06/09 14:48:01;;;;;;;6.40;1.40;;;23.50;85.40;;;;;;5027241;28;20498;-86
2022/06/09 14:50:27;;;;;;;5.97;1.60;;;23.40;84.30;;;;;;5013944;28;20041;-85
2022/06/09 14:52:53;;;;;;;6.38;1.60;;;23.40;83.80;;;;;;5030385;28;20022;-86
2022/06/09 14:55:19;;;;;;;5.70;1.70;;;23.40;83.60;;;;;;5014169;28;20376;-85
2022/06/09 14:57:45;;;;;;;7.78;1.67;;;23.50;84.50;;;;;;4996670;28;20120;-86
2022/06/09 15:00:25;;;;;;;6.55;1.67;;;23.50;84.70;;;;;;5013857;28;20021;-86
2022/06/09 15:02:52;;;;;;;5.35;1.40;;;23.60;85.40;;;;;;5013904;28;20074;-86
2022/06/09 15:05:19;;;;;;;7.85;1.95;;;23.60;82.80;;;;;;4997673;28;20022;-87
2022/06/09 15:07:46;;;;;;;9.75;2.20;;;23.70;80.20;;;;;;5013887;28;20034;-86
2022/06/09 15:10:21;;;;;;;5.82;1.42;;;23.70;81.00;;;;;;5013644;28;20087;-87
2022/06/09 15:12:48;;;;;;;5.45;1.52;;;23.70;81.40;;;;;;5013836;28;20379;-86
2022/06/09 15:15:14;;;;;;;7.63;1.92;;;23.80;82.70;;;;;;5008857;28;20091;-87
2022/06/09 15:17:41;;;;;;;4.78;1.65;;;23.80;82.00;;;;;;5013566;28;20026;-85
2022/06/09 15:20:09;;;;;;;7.65;2.03;;;23.90;81.90;;;;;;4983777;28;20037;-85
2022/06/09 15:22:35;;;;;;;8.10;2.00;;;23.90;82.20;;;;;;5013841;28;20236;-86
2022/06/09 15:25:01;;;;;;;7.63;2.00;;;23.90;81.20;;;;;;5009075;28;20124;-87
2022/06/09 15:27:27;;;;;;;6.93;1.65;;;24.00;81.00;;;;;;5014406;28;20097;-87
2022/06/09 15:29:52;;;;;;;6.82;1.30;;;24.10;81.60;;;;;;5024259;28;20041;-85
2022/06/09 15:32:39;;;;;;;7.07;1.50;;;24.10;81.30;;;;;;4999808;28;20472;-87
2022/06/09 15:35:05;;;;;;;9.38;1.65;;;24.20;82.40;;;;;;5003249;28;20073;-85
2022/06/09 15:37:46;;;;;;;5.40;1.50;;;24.20;81.10;;;;;;5041262;28;20041;-85
2022/06/09 15:40:13;;;;;;;;;;;24.30;78.50;;;;;;5051067;28;20061;-85